createdAt,value
2022-09-28T00:01:19.350Z,77.24
2022-09-28T00:06:27.415Z,77.29
2022-09-28T00:11:31.347Z,77.37
2022-09-28T00:16:38.602Z,77.58
2022-09-28T00:21:43.187Z,77.50
2022-09-28T00:26:52.481Z,77.59
2022-09-28T00:32:05.371Z,77.98
2022-09-28T00:37:10.463Z,77.90
2022-09-28T00:42:20.900Z,77.89
2022-09-28T00:47:55.135Z,78.53
2022-09-28T00:53:05.209Z,78.79
2022-09-28T00:58:16.501Z,78.80
2022-09-28T01:03:20.347Z,79.17
2022-09-28T01:08:27.916Z,79.21
2022-09-28T01:13:32.963Z,79.36
2022-09-28T01:18:43.978Z,79.70
2022-09-28T01:23:55.996Z,79.94
2022-09-28T01:29:16.859Z,79.99
2022-09-28T01:34:45.009Z,80.23
2022-09-28T01:39:52.724Z,80.29
2022-09-28T01:45:04.126Z,80.46
2022-09-28T01:50:14.191Z,80.62
2022-09-28T01:55:28.666Z,81.11
2022-09-28T02:00:35.399Z,80.99
2022-09-28T02:05:43.376Z,80.87
2022-09-28T02:11:11.570Z,81.14
2022-09-28T02:16:22.540Z,81.22
2022-09-28T02:21:34.270Z,81.60
2022-09-28T02:26:42.187Z,83.18
2022-09-28T02:31:45.477Z,83.82
2022-09-28T02:36:49.118Z,84.86
2022-09-28T02:42:04.407Z,85.55
2022-09-28T02:47:57.501Z,85.90
2022-09-28T02:53:37.559Z,86.96
2022-09-28T02:58:58.179Z,86.73
2022-09-28T03:04:12.650Z,86.84
2022-09-28T03:09:22.002Z,87.07
2022-09-28T03:14:25.314Z,87.00
2022-09-28T03:19:32.662Z,87.24
2022-09-28T03:24:36.026Z,87.03
2022-09-28T03:29:39.645Z,87.22
2022-09-28T03:34:42.956Z,87.49
2022-09-28T03:39:46.165Z,87.59
2022-09-28T03:44:49.373Z,87.80
2022-09-28T03:49:52.685Z,88.41
2022-09-28T03:54:55.993Z,88.46
2022-09-28T03:59:59.210Z,89.09
2022-09-28T04:05:03.027Z,90.32
2022-09-28T04:10:06.950Z,90.37
2022-09-28T04:15:10.879Z,90.49
2022-09-28T04:20:14.904Z,90.73
2022-09-28T04:25:18.010Z,91.39
2022-09-28T04:30:22.243Z,91.96
2022-09-28T04:35:25.456Z,92.26
2022-09-28T04:40:28.919Z,92.83
2022-09-28T04:45:32.354Z,93.14
2022-09-28T04:50:35.690Z,94.31
2022-09-28T04:55:39.307Z,94.40
2022-09-28T05:00:42.761Z,93.78
2022-09-28T05:05:46.656Z,94.07
2022-09-28T05:11:01.527Z,94.25
2022-09-28T05:16:05.698Z,94.28
2022-09-28T05:21:13.782Z,94.16
2022-09-28T05:26:17.409Z,94.15
2022-09-28T05:31:20.786Z,94.16
2022-09-28T05:36:27.097Z,94.12
2022-09-28T05:41:30.301Z,93.84
2022-09-28T05:46:33.510Z,96.48
2022-09-28T05:51:36.716Z,98.53
2022-09-28T05:56:39.926Z,99.42
2022-09-28T06:01:43.281Z,99.91
2022-09-28T06:06:46.551Z,100.00
2022-09-28T06:11:50.683Z,100.00
2022-09-28T06:16:54.124Z,100.00
2022-09-28T06:21:59.259Z,100.00
2022-09-28T06:27:02.865Z,100.00
2022-09-28T06:32:07.607Z,100.00
2022-09-28T06:37:10.918Z,100.00
2022-09-28T06:42:15.969Z,100.00
2022-09-28T06:47:19.281Z,100.00
2022-09-28T06:52:22.489Z,100.00
2022-09-28T06:57:25.901Z,100.00
2022-09-28T07:02:29.383Z,100.00
2022-09-28T07:07:33.345Z,100.00
2022-09-28T07:12:36.857Z,100.00
2022-09-28T07:17:54.152Z,100.00
2022-09-28T07:23:16.081Z,100.00
2022-09-28T07:28:22.015Z,100.00
2022-09-28T07:33:30.242Z,100.00
2022-09-28T07:38:33.960Z,100.00
2022-09-28T07:43:39.889Z,100.00
2022-09-28T07:48:45.993Z,100.00
2022-09-28T07:53:49.526Z,100.00
2022-09-28T07:58:52.939Z,100.00
2022-09-28T08:03:56.558Z,100.00
2022-09-28T08:09:02.018Z,100.00
2022-09-28T08:14:05.329Z,100.00
2022-09-28T08:19:08.745Z,100.00
2022-09-28T08:24:14.343Z,100.00
2022-09-28T08:29:17.820Z,100.00
2022-09-28T08:34:21.236Z,100.00
2022-09-28T08:39:24.546Z,100.00
2022-09-28T08:44:39.579Z,100.00
2022-09-28T08:49:47.620Z,100.00
2022-09-28T08:55:02.330Z,100.00
2022-09-28T09:00:10.950Z,100.00
2022-09-28T09:05:24.315Z,100.00
2022-09-28T09:10:51.075Z,100.00
2022-09-28T09:16:15.749Z,100.00
2022-09-28T09:21:37.731Z,100.00
2022-09-28T09:26:41.964Z,100.00
2022-09-28T09:32:20.811Z,100.00
2022-09-28T09:37:34.875Z,100.00
2022-09-28T09:42:40.849Z,100.00
2022-09-28T09:47:58.494Z,100.00
2022-09-28T09:53:22.077Z,100.00
2022-09-28T09:58:49.043Z,100.00
2022-09-28T10:03:53.092Z,100.00
2022-09-28T10:09:04.986Z,100.00
2022-09-28T10:14:17.516Z,100.00
2022-09-28T10:19:31.370Z,100.00
2022-09-28T10:24:45.532Z,100.00
2022-09-28T10:30:00.415Z,100.00
2022-09-28T10:35:19.097Z,100.00
2022-09-28T10:40:45.017Z,100.00
2022-09-28T10:45:50.323Z,100.00
2022-09-28T10:51:09.057Z,100.00
2022-09-28T10:56:23.104Z,100.00
2022-09-28T11:01:31.437Z,100.00
2022-09-28T11:06:40.300Z,100.00
2022-09-28T11:11:44.519Z,98.86
2022-09-28T11:16:47.583Z,98.33
2022-09-28T11:21:51.346Z,99.19
2022-09-28T11:27:00.433Z,98.73
2022-09-28T11:32:06.877Z,98.55
2022-09-28T11:37:16.227Z,98.88
2022-09-28T11:42:54.913Z,98.26
2022-09-28T11:48:03.239Z,97.68
2022-09-28T11:53:27.600Z,97.50
2022-09-28T11:58:35.623Z,97.67
2022-09-28T12:03:48.953Z,95.62
2022-09-28T12:09:01.140Z,92.97
2022-09-28T12:14:10.746Z,91.80
2022-09-28T12:19:33.719Z,90.03
2022-09-28T12:24:42.762Z,91.47
2022-09-28T12:29:49.045Z,91.15
2022-09-28T12:34:52.456Z,90.31
2022-09-28T12:40:21.203Z,90.86
2022-09-28T12:46:13.733Z,90.77
2022-09-28T12:51:23.283Z,90.32
2022-09-28T12:56:29.261Z,91.61
2022-09-28T13:01:47.444Z,90.52
2022-09-28T13:06:59.227Z,90.97
2022-09-28T13:12:25.987Z,91.20
2022-09-28T13:17:56.534Z,90.58
2022-09-28T13:23:21.148Z,91.18
2022-09-28T13:28:27.496Z,92.15
2022-09-28T13:33:51.530Z,91.32
2022-09-28T13:38:57.091Z,90.27
2022-09-28T13:44:38.405Z,90.49
2022-09-28T13:50:04.125Z,89.36
2022-09-28T13:55:32.996Z,89.08
2022-09-28T14:01:02.359Z,88.32
2022-09-28T14:06:23.704Z,87.32
2022-09-28T14:11:34.578Z,87.43
2022-09-28T14:16:39.504Z,86.89
2022-09-28T14:22:17.758Z,87.58
2022-09-28T14:27:45.951Z,88.19
2022-09-28T14:33:00.087Z,87.71
2022-09-28T14:38:31.486Z,87.26
2022-09-28T14:43:35.002Z,84.44
2022-09-28T14:48:49.189Z,85.86
2022-09-28T14:54:01.282Z,86.49
2022-09-28T14:59:07.476Z,83.64
2022-09-28T15:04:13.427Z,82.42
2022-09-28T15:09:30.569Z,80.98
2022-09-28T15:14:42.891Z,81.20
2022-09-28T15:20:09.757Z,77.39
2022-09-28T15:25:16.854Z,77.79
2022-09-28T15:30:33.475Z,77.14
2022-09-28T15:35:38.967Z,78.31
2022-09-28T15:40:42.587Z,77.08
2022-09-28T15:46:03.130Z,75.03
2022-09-28T15:51:13.045Z,73.93
2022-09-28T15:56:16.963Z,74.81
2022-09-28T16:01:36.835Z,74.77
2022-09-28T16:06:41.918Z,74.58
2022-09-28T16:11:45.223Z,74.76
2022-09-28T16:16:52.834Z,74.37
2022-09-28T16:21:59.220Z,74.47
2022-09-28T16:27:07.037Z,74.96
2022-09-28T16:32:25.707Z,75.17
2022-09-28T16:37:33.134Z,75.27
2022-09-28T16:42:38.050Z,75.51
2022-09-28T16:47:41.678Z,75.95
2022-09-28T16:53:03.573Z,75.79
2022-09-28T16:58:07.248Z,75.93
2022-09-28T17:03:14.919Z,76.25
2022-09-28T17:08:22.412Z,76.55
2022-09-28T17:13:34.894Z,76.54
2022-09-28T17:18:39.954Z,76.36
2022-09-28T17:23:44.587Z,76.52
2022-09-28T17:28:47.898Z,77.04
2022-09-28T17:33:52.337Z,77.16
2022-09-28T17:38:56.888Z,77.16
2022-09-28T17:44:03.360Z,77.28
2022-09-28T17:49:10.049Z,77.64
2022-09-28T17:54:13.973Z,77.71
2022-09-28T17:59:19.263Z,77.74
2022-09-28T18:04:50.204Z,78.07
2022-09-28T18:09:46.331Z,78.36
2022-09-28T18:14:49.852Z,78.09
2022-09-28T18:19:53.096Z,78.31
2022-09-28T18:24:56.674Z,78.52
2022-09-28T18:30:00.598Z,78.85
2022-09-28T18:35:08.987Z,78.98
2022-09-28T18:40:15.619Z,79.37
2022-09-28T18:45:19.337Z,79.59
2022-09-28T18:50:22.648Z,79.83
2022-09-28T18:55:26.884Z,79.83
2022-09-28T19:00:30.396Z,80.17
2022-09-28T19:05:35.402Z,80.21
2022-09-28T19:10:38.757Z,80.38
2022-09-28T19:15:42.126Z,80.66
2022-09-28T19:20:45.821Z,80.65
2022-09-28T19:25:49.307Z,81.04
2022-09-28T19:30:57.563Z,81.10
2022-09-28T19:36:03.754Z,81.01
2022-09-28T19:41:39.558Z,81.44
2022-09-28T19:46:45.796Z,81.59
2022-09-28T19:52:14.968Z,81.58
2022-09-28T19:57:19.932Z,82.18
2022-09-28T20:02:23.390Z,82.10
2022-09-28T20:07:26.652Z,82.22
2022-09-28T20:12:30.168Z,82.12
2022-09-28T20:17:33.589Z,82.71
2022-09-28T20:22:37.404Z,83.26
2022-09-28T20:27:40.716Z,84.09
2022-09-28T20:32:48.729Z,84.28
2022-09-28T20:37:53.173Z,84.57
2022-09-28T20:43:00.594Z,85.00
2022-09-28T20:48:06.537Z,84.97
2022-09-28T20:53:09.966Z,85.34
2022-09-28T20:58:13.281Z,85.62
2022-09-28T21:03:16.893Z,85.42
2022-09-28T21:08:24.165Z,85.73
2022-09-28T21:13:27.510Z,86.01
2022-09-28T21:18:31.025Z,86.00
2022-09-28T21:23:36.084Z,86.35
2022-09-28T21:28:40.208Z,86.59
2022-09-28T21:33:43.518Z,86.64
2022-09-28T21:38:47.033Z,86.69
2022-09-28T21:43:50.350Z,86.74
2022-09-28T21:48:54.173Z,86.67
2022-09-28T21:53:57.784Z,86.64
2022-09-28T21:59:01.608Z,86.91
2022-09-28T22:04:04.921Z,87.17
2022-09-28T22:09:08.336Z,87.27
2022-09-28T22:14:11.769Z,87.29
2022-09-28T22:19:15.774Z,87.70
2022-09-28T22:24:19.200Z,87.81
2022-09-28T22:29:22.701Z,87.91
2022-09-28T22:34:28.265Z,88.12
2022-09-28T22:39:36.796Z,88.19
2022-09-28T22:44:41.131Z,88.27
2022-09-28T22:49:44.442Z,88.35
2022-09-28T22:54:50.110Z,88.43
2022-09-28T22:59:53.625Z,88.19
2022-09-28T23:04:56.939Z,88.48
2022-09-28T23:10:00.965Z,88.68
2022-09-28T23:15:05.403Z,88.69
2022-09-28T23:20:09.196Z,88.78
2022-09-28T23:25:12.638Z,88.75
2022-09-28T23:30:17.714Z,88.80
2022-09-28T23:35:20.999Z,89.04
2022-09-28T23:40:24.350Z,89.13
2022-09-28T23:45:27.928Z,88.97
2022-09-28T23:50:31.238Z,89.11
2022-09-28T23:55:34.651Z,89.12
